KTVC/TVC METAR and TAF weather

Enter ICAO airport designator
Station Type Date Time Source
KTVC METAR 2021/03/02 13:53 UTC NOAA

KTVC 021353Z 18008KT 10SM SCT060 BKN110 M07/M13 A3018 RMK AO2 SLP231 T10671133


Station Type Date Time Source
KTVC Decoded METAR 2021/03/02 13:53 UTC NOAA

CHERRY CAPITAL AIRPORT, MI, United States (KTVC) 44-44N 085-34W 190M
Mar 02, 2021 - 08:53 AM EST / 2021.03.02 1353 UTC
Wind: from the S (180 degrees) at 9 MPH (8 KT):0
Visibility: 10 mile(s):0
Sky conditions: mostly cloudy
Temperature: 19.9 F (-6.7 C)
Windchill: 8 F (-13 C):1
Dew Point: 8.1 F (-13.3 C)
Relative Humidity: 59%
Pressure (altimeter): 30.18 in. Hg (1022 hPa)
ob: KTVC 021353Z 18008KT 10SM SCT060 BKN110 M07/M13 A3018 RMK AO2 SLP231 T10671133
cycle: 14

Station Type Date Time Source
KTVC TAF 2021/03/02 14:06 UTC NOAA

TAF
AMD KTVC 021405Z 0214/0312 18008KT P6SM SCT060 BKN110
FM021600 21015G25KT P6SM SCT250
FM022100 22021G33KT P6SM SCT250 WS020/23050KT
FM030300 24014G23KT P6SM BKN035 WS020/26045KT
FM030700 26009KT P6SM BKN035
FM031100 29005KT P6SM BKN027

Example: see airport list